sensor_id;sensor_type;location;lat;lon;timestamp;P1;durP1;ratioP1;P2;durP2;ratioP2
68196;SDS011;55019;49.382;11.358;2023-05-15T00:00:00;2.22;;;2.03;;
68196;SDS011;55019;49.382;11.358;2023-05-15T00:02:25;4.43;;;2.40;;
68196;SDS011;55019;49.382;11.358;2023-05-15T00:04:52;2.40;;;1.90;;
68196;SDS011;55019;49.382;11.358;2023-05-15T00:07:17;3.17;;;2.50;;
68196;SDS011;55019;49.382;11.358;2023-05-15T00:09:43;4.15;;;2.50;;
68196;SDS011;55019;49.382;11.358;2023-05-15T00:12:09;2.80;;;2.45;;
68196;SDS011;55019;49.382;11.358;2023-05-15T00:14:35;2.78;;;2.35;;
68196;SDS011;55019;49.382;11.358;2023-05-15T00:17:00;3.08;;;2.65;;
68196;SDS011;55019;49.382;11.358;2023-05-15T00:19:26;2.25;;;2.00;;
68196;SDS011;55019;49.382;11.358;2023-05-15T00:21:52;3.55;;;2.70;;
68196;SDS011;55019;49.382;11.358;2023-05-15T00:24:20;3.13;;;2.40;;
68196;SDS011;55019;49.382;11.358;2023-05-15T00:26:46;3.05;;;2.75;;
68196;SDS011;55019;49.382;11.358;2023-05-15T00:29:12;3.25;;;2.33;;
68196;SDS011;55019;49.382;11.358;2023-05-15T00:31:37;4.35;;;2.70;;
68196;SDS011;55019;49.382;11.358;2023-05-15T00:34:03;2.42;;;2.20;;
68196;SDS011;55019;49.382;11.358;2023-05-15T00:36:29;3.65;;;2.67;;
68196;SDS011;55019;49.382;11.358;2023-05-15T00:38:55;3.35;;;2.50;;
68196;SDS011;55019;49.382;11.358;2023-05-15T00:41:22;4.10;;;2.70;;
68196;SDS011;55019;49.382;11.358;2023-05-15T00:43:49;3.03;;;2.38;;
68196;SDS011;55019;49.382;11.358;2023-05-15T00:46:16;3.55;;;2.42;;
68196;SDS011;55019;49.382;11.358;2023-05-15T00:48:42;4.40;;;3.13;;
68196;SDS011;55019;49.382;11.358;2023-05-15T00:51:08;5.32;;;2.70;;
68196;SDS011;55019;49.382;11.358;2023-05-15T00:53:34;4.40;;;2.60;;
68196;SDS011;55019;49.382;11.358;2023-05-15T00:56:00;3.70;;;2.92;;
68196;SDS011;55019;49.382;11.358;2023-05-15T00:58:27;4.05;;;2.20;;
68196;SDS011;55019;49.382;11.358;2023-05-15T01:00:54;3.15;;;2.63;;
68196;SDS011;55019;49.382;11.358;2023-05-15T01:03:20;3.25;;;2.22;;
68196;SDS011;55019;49.382;11.358;2023-05-15T01:05:46;2.80;;;2.28;;
68196;SDS011;55019;49.382;11.358;2023-05-15T01:08:15;2.88;;;2.22;;
68196;SDS011;55019;49.382;11.358;2023-05-15T01:11:02;2.42;;;2.20;;
68196;SDS011;55019;49.382;11.358;2023-05-15T01:15:55;3.33;;;2.22;;
68196;SDS011;55019;49.382;11.358;2023-05-15T01:18:22;2.65;;;2.17;;
68196;SDS011;55019;49.382;11.358;2023-05-15T01:23:23;2.80;;;2.00;;
68196;SDS011;55019;49.382;11.358;2023-05-15T01:31:50;3.03;;;2.08;;
68196;SDS011;55019;49.382;11.358;2023-05-15T01:34:22;3.92;;;2.47;;
68196;SDS011;55019;49.382;11.358;2023-05-15T01:36:56;3.05;;;2.33;;
68196;SDS011;55019;49.382;11.358;2023-05-15T01:39:27;2.65;;;2.08;;
68196;SDS011;55019;49.382;11.358;2023-05-15T01:42:01;3.60;;;2.50;;
68196;SDS011;55019;49.382;11.358;2023-05-15T01:47:03;2.75;;;2.00;;
68196;SDS011;55019;49.382;11.358;2023-05-15T01:49:33;3.53;;;2.47;;
68196;SDS011;55019;49.382;11.358;2023-05-15T01:54:49;2.88;;;2.10;;
68196;SDS011;55019;49.382;11.358;2023-05-15T01:57:16;3.15;;;2.45;;
68196;SDS011;55019;49.382;11.358;2023-05-15T01:59:43;3.63;;;2.28;;
68196;SDS011;55019;49.382;11.358;2023-05-15T02:02:10;3.13;;;2.00;;
68196;SDS011;55019;49.382;11.358;2023-05-15T02:04:37;2.78;;;2.33;;
68196;SDS011;55019;49.382;11.358;2023-05-15T02:07:05;2.40;;;2.08;;
68196;SDS011;55019;49.382;11.358;2023-05-15T02:09:32;2.80;;;1.88;;
68196;SDS011;55019;49.382;11.358;2023-05-15T02:12:00;2.67;;;2.33;;
68196;SDS011;55019;49.382;11.358;2023-05-15T02:16:54;2.25;;;1.77;;
68196;SDS011;55019;49.382;11.358;2023-05-15T02:19:20;2.55;;;2.10;;
68196;SDS011;55019;49.382;11.358;2023-05-15T02:21:46;2.70;;;2.40;;
68196;SDS011;55019;49.382;11.358;2023-05-15T02:24:13;3.58;;;2.10;;
68196;SDS011;55019;49.382;11.358;2023-05-15T02:35:16;2.83;;;1.95;;
68196;SDS011;55019;49.382;11.358;2023-05-15T02:37:48;2.90;;;2.28;;
68196;SDS011;55019;49.382;11.358;2023-05-15T02:40:18;2.00;;;1.80;;
68196;SDS011;55019;49.382;11.358;2023-05-15T02:42:45;2.80;;;2.03;;
68196;SDS011;55019;49.382;11.358;2023-05-15T02:45:12;4.25;;;2.85;;
68196;SDS011;55019;49.382;11.358;2023-05-15T02:47:38;3.92;;;2.75;;
68196;SDS011;55019;49.382;11.358;2023-05-15T02:50:05;2.83;;;2.35;;
68196;SDS011;55019;49.382;11.358;2023-05-15T02:52:32;2.85;;;2.17;;
68196;SDS011;55019;49.382;11.358;2023-05-15T02:54:59;4.25;;;2.30;;
68196;SDS011;55019;49.382;11.358;2023-05-15T02:57:25;3.05;;;2.08;;
68196;SDS011;55019;49.382;11.358;2023-05-15T02:59:51;3.35;;;1.83;;
68196;SDS011;55019;49.382;11.358;2023-05-15T03:04:44;2.85;;;2.03;;
68196;SDS011;55019;49.382;11.358;2023-05-15T03:07:10;3.25;;;2.17;;
68196;SDS011;55019;49.382;11.358;2023-05-15T03:09:36;2.88;;;2.20;;
68196;SDS011;55019;49.382;11.358;2023-05-15T03:12:01;2.58;;;1.90;;
68196;SDS011;55019;49.382;11.358;2023-05-15T03:14:27;3.45;;;1.95;;
68196;SDS011;55019;49.382;11.358;2023-05-15T03:16:53;3.65;;;2.05;;
68196;SDS011;55019;49.382;11.358;2023-05-15T03:19:18;4.13;;;2.33;;
68196;SDS011;55019;49.382;11.358;2023-05-15T03:21:44;1.95;;;1.70;;
68196;SDS011;55019;49.382;11.358;2023-05-15T03:24:10;4.00;;;2.60;;
68196;SDS011;55019;49.382;11.358;2023-05-15T03:26:36;2.88;;;1.88;;
68196;SDS011;55019;49.382;11.358;2023-05-15T03:29:02;2.60;;;2.10;;
68196;SDS011;55019;49.382;11.358;2023-05-15T03:31:27;3.95;;;2.33;;
68196;SDS011;55019;49.382;11.358;2023-05-15T03:33:53;2.67;;;2.17;;
68196;SDS011;55019;49.382;11.358;2023-05-15T03:36:20;2.13;;;1.92;;
68196;SDS011;55019;49.382;11.358;2023-05-15T03:38:46;2.63;;;1.88;;
68196;SDS011;55019;49.382;11.358;2023-05-15T03:41:12;2.30;;;1.85;;
68196;SDS011;55019;49.382;11.358;2023-05-15T03:43:38;2.30;;;1.75;;
68196;SDS011;55019;49.382;11.358;2023-05-15T03:46:04;2.35;;;1.90;;
68196;SDS011;55019;49.382;11.358;2023-05-15T03:48:29;2.70;;;1.92;;
68196;SDS011;55019;49.382;11.358;2023-05-15T03:50:55;2.55;;;1.90;;
68196;SDS011;55019;49.382;11.358;2023-05-15T03:53:21;2.30;;;2.08;;
68196;SDS011;55019;49.382;11.358;2023-05-15T03:55:47;3.03;;;1.90;;
68196;SDS011;55019;49.382;11.358;2023-05-15T03:58:13;1.90;;;1.70;;
68196;SDS011;55019;49.382;11.358;2023-05-15T04:00:38;2.42;;;1.88;;
68196;SDS011;55019;49.382;11.358;2023-05-15T04:03:04;2.70;;;2.17;;
68196;SDS011;55019;49.382;11.358;2023-05-15T04:05:30;3.65;;;2.00;;
68196;SDS011;55019;49.382;11.358;2023-05-15T04:07:55;3.42;;;2.50;;
68196;SDS011;55019;49.382;11.358;2023-05-15T04:10:21;2.72;;;1.90;;
68196;SDS011;55019;49.382;11.358;2023-05-15T04:12:47;3.17;;;2.03;;
68196;SDS011;55019;49.382;11.358;2023-05-15T04:17:41;3.28;;;2.25;;
68196;SDS011;55019;49.382;11.358;2023-05-15T04:20:08;3.08;;;2.13;;
68196;SDS011;55019;49.382;11.358;2023-05-15T04:22:35;2.85;;;2.35;;
68196;SDS011;55019;49.382;11.358;2023-05-15T04:25:01;3.90;;;2.70;;
68196;SDS011;55019;49.382;11.358;2023-05-15T04:27:27;3.28;;;2.33;;
68196;SDS011;55019;49.382;11.358;2023-05-15T04:29:52;3.03;;;2.08;;
68196;SDS011;55019;49.382;11.358;2023-05-15T04:32:18;2.55;;;1.85;;
68196;SDS011;55019;49.382;11.358;2023-05-15T04:34:44;2.53;;;2.03;;
68196;SDS011;55019;49.382;11.358;2023-05-15T04:37:10;2.25;;;1.83;;
68196;SDS011;55019;49.382;11.358;2023-05-15T04:39:36;2.17;;;1.98;;
68196;SDS011;55019;49.382;11.358;2023-05-15T04:42:02;3.20;;;1.85;;
68196;SDS011;55019;49.382;11.358;2023-05-15T04:44:28;3.60;;;2.33;;
68196;SDS011;55019;49.382;11.358;2023-05-15T04:46:57;2.28;;;1.85;;
68196;SDS011;55019;49.382;11.358;2023-05-15T04:50:05;2.97;;;2.08;;
68196;SDS011;55019;49.382;11.358;2023-05-15T04:52:32;2.88;;;2.58;;
68196;SDS011;55019;49.382;11.358;2023-05-15T04:54:57;3.63;;;2.22;;
68196;SDS011;55019;49.382;11.358;2023-05-15T04:57:23;3.58;;;2.30;;
68196;SDS011;55019;49.382;11.358;2023-05-15T04:59:50;3.40;;;2.40;;
68196;SDS011;55019;49.382;11.358;2023-05-15T05:02:18;3.83;;;2.47;;
68196;SDS011;55019;49.382;11.358;2023-05-15T05:04:48;3.45;;;2.35;;
68196;SDS011;55019;49.382;11.358;2023-05-15T05:07:14;4.00;;;2.65;;
68196;SDS011;55019;49.382;11.358;2023-05-15T05:09:40;3.05;;;2.65;;
68196;SDS011;55019;49.382;11.358;2023-05-15T05:12:06;3.55;;;2.45;;
68196;SDS011;55019;49.382;11.358;2023-05-15T05:14:32;4.00;;;2.10;;
68196;SDS011;55019;49.382;11.358;2023-05-15T05:16:58;3.63;;;2.65;;
68196;SDS011;55019;49.382;11.358;2023-05-15T05:19:24;3.55;;;2.38;;
68196;SDS011;55019;49.382;11.358;2023-05-15T05:21:50;3.85;;;2.47;;
68196;SDS011;55019;49.382;11.358;2023-05-15T05:24:16;4.00;;;2.60;;
68196;SDS011;55019;49.382;11.358;2023-05-15T05:26:42;4.70;;;2.83;;
68196;SDS011;55019;49.382;11.358;2023-05-15T05:29:08;4.72;;;3.30;;
68196;SDS011;55019;49.382;11.358;2023-05-15T05:31:33;6.32;;;3.35;;
68196;SDS011;55019;49.382;11.358;2023-05-15T05:33:59;4.57;;;3.00;;
68196;SDS011;55019;49.382;11.358;2023-05-15T05:36:24;4.22;;;3.25;;
68196;SDS011;55019;49.382;11.358;2023-05-15T05:38:50;5.45;;;3.50;;
68196;SDS011;55019;49.382;11.358;2023-05-15T05:41:16;5.15;;;3.60;;
68196;SDS011;55019;49.382;11.358;2023-05-15T05:43:42;5.18;;;3.33;;
68196;SDS011;55019;49.382;11.358;2023-05-15T05:46:07;4.85;;;3.40;;
68196;SDS011;55019;49.382;11.358;2023-05-15T05:48:33;5.18;;;3.40;;
68196;SDS011;55019;49.382;11.358;2023-05-15T05:50:58;4.72;;;3.03;;
68196;SDS011;55019;49.382;11.358;2023-05-15T05:53:24;5.57;;;3.67;;
68196;SDS011;55019;49.382;11.358;2023-05-15T05:55:50;7.97;;;4.10;;
68196;SDS011;55019;49.382;11.358;2023-05-15T05:58:16;7.32;;;4.68;;
68196;SDS011;55019;49.382;11.358;2023-05-15T06:00:43;6.45;;;4.55;;
68196;SDS011;55019;49.382;11.358;2023-05-15T06:03:08;7.93;;;4.72;;
68196;SDS011;55019;49.382;11.358;2023-05-15T06:05:34;7.18;;;4.10;;
68196;SDS011;55019;49.382;11.358;2023-05-15T06:08:00;6.25;;;4.53;;
68196;SDS011;55019;49.382;11.358;2023-05-15T06:10:28;7.03;;;3.85;;
68196;SDS011;55019;49.382;11.358;2023-05-15T06:12:55;6.70;;;4.00;;
68196;SDS011;55019;49.382;11.358;2023-05-15T06:15:21;5.20;;;3.38;;
68196;SDS011;55019;49.382;11.358;2023-05-15T06:17:46;6.22;;;3.85;;
68196;SDS011;55019;49.382;11.358;2023-05-15T06:20:12;5.75;;;3.50;;
68196;SDS011;55019;49.382;11.358;2023-05-15T06:22:38;4.53;;;3.80;;
68196;SDS011;55019;49.382;11.358;2023-05-15T06:25:04;5.93;;;4.57;;
68196;SDS011;55019;49.382;11.358;2023-05-15T06:27:31;5.38;;;4.18;;
68196;SDS011;55019;49.382;11.358;2023-05-15T06:29:58;5.35;;;3.88;;
68196;SDS011;55019;49.382;11.358;2023-05-15T06:32:23;5.45;;;3.67;;
68196;SDS011;55019;49.382;11.358;2023-05-15T06:34:49;5.43;;;4.05;;
68196;SDS011;55019;49.382;11.358;2023-05-15T06:37:15;6.22;;;3.72;;
68196;SDS011;55019;49.382;11.358;2023-05-15T06:39:40;5.80;;;3.75;;
68196;SDS011;55019;49.382;11.358;2023-05-15T06:42:06;5.88;;;4.25;;
68196;SDS011;55019;49.382;11.358;2023-05-15T06:44:33;5.65;;;4.00;;
68196;SDS011;55019;49.382;11.358;2023-05-15T06:46:59;5.95;;;4.00;;
68196;SDS011;55019;49.382;11.358;2023-05-15T06:49:25;6.25;;;3.80;;
68196;SDS011;55019;49.382;11.358;2023-05-15T06:51:51;5.38;;;3.85;;
68196;SDS011;55019;49.382;11.358;2023-05-15T06:54:19;6.80;;;4.50;;
68196;SDS011;55019;49.382;11.358;2023-05-15T06:56:45;6.13;;;4.57;;
68196;SDS011;55019;49.382;11.358;2023-05-15T06:59:11;6.97;;;4.57;;
68196;SDS011;55019;49.382;11.358;2023-05-15T07:01:36;7.55;;;5.18;;
68196;SDS011;55019;49.382;11.358;2023-05-15T07:04:02;8.00;;;4.90;;
68196;SDS011;55019;49.382;11.358;2023-05-15T07:06:28;8.15;;;4.47;;
68196;SDS011;55019;49.382;11.358;2023-05-15T07:11:22;8.13;;;4.30;;
68196;SDS011;55019;49.382;11.358;2023-05-15T07:13:47;6.30;;;4.25;;
68196;SDS011;55019;49.382;11.358;2023-05-15T07:16:13;6.10;;;4.18;;
68196;SDS011;55019;49.382;11.358;2023-05-15T07:18:39;5.38;;;3.90;;
68196;SDS011;55019;49.382;11.358;2023-05-15T07:21:04;7.20;;;4.75;;
68196;SDS011;55019;49.382;11.358;2023-05-15T07:23:30;6.75;;;4.75;;
68196;SDS011;55019;49.382;11.358;2023-05-15T07:25:56;6.95;;;4.85;;
68196;SDS011;55019;49.382;11.358;2023-05-15T07:28:21;7.93;;;4.43;;
68196;SDS011;55019;49.382;11.358;2023-05-15T07:30:47;6.57;;;4.65;;
68196;SDS011;55019;49.382;11.358;2023-05-15T07:33:13;6.95;;;4.47;;
68196;SDS011;55019;49.382;11.358;2023-05-15T07:35:38;6.75;;;4.90;;
68196;SDS011;55019;49.382;11.358;2023-05-15T07:38:04;6.82;;;4.43;;
68196;SDS011;55019;49.382;11.358;2023-05-15T07:40:30;6.32;;;4.25;;
68196;SDS011;55019;49.382;11.358;2023-05-15T07:42:55;4.78;;;3.42;;
68196;SDS011;55019;49.382;11.358;2023-05-15T07:45:21;5.45;;;4.18;;
68196;SDS011;55019;49.382;11.358;2023-05-15T07:47:47;5.03;;;3.63;;
68196;SDS011;55019;49.382;11.358;2023-05-15T07:50:14;6.50;;;4.43;;
68196;SDS011;55019;49.382;11.358;2023-05-15T07:52:40;5.30;;;4.00;;
68196;SDS011;55019;49.382;11.358;2023-05-15T07:55:08;4.80;;;4.18;;
68196;SDS011;55019;49.382;11.358;2023-05-15T07:57:34;5.00;;;4.03;;
68196;SDS011;55019;49.382;11.358;2023-05-15T07:59:59;4.80;;;3.65;;
68196;SDS011;55019;49.382;11.358;2023-05-15T08:02:37;4.53;;;3.42;;
68196;SDS011;55019;49.382;11.358;2023-05-15T08:05:03;5.70;;;3.78;;
68196;SDS011;55019;49.382;11.358;2023-05-15T08:07:33;3.55;;;3.25;;
68196;SDS011;55019;49.382;11.358;2023-05-15T08:09:59;5.60;;;3.47;;
68196;SDS011;55019;49.382;11.358;2023-05-15T08:12:25;5.95;;;4.55;;
68196;SDS011;55019;49.382;11.358;2023-05-15T08:14:52;3.95;;;3.33;;
68196;SDS011;55019;49.382;11.358;2023-05-15T08:17:19;4.18;;;3.55;;
68196;SDS011;55019;49.382;11.358;2023-05-15T08:19:46;5.10;;;3.40;;
68196;SDS011;55019;49.382;11.358;2023-05-15T08:22:12;4.72;;;3.80;;
68196;SDS011;55019;49.382;11.358;2023-05-15T08:24:38;4.82;;;3.50;;
68196;SDS011;55019;49.382;11.358;2023-05-15T08:27:07;3.85;;;3.22;;
68196;SDS011;55019;49.382;11.358;2023-05-15T08:29:36;5.30;;;3.67;;
68196;SDS011;55019;49.382;11.358;2023-05-15T08:32:03;5.05;;;3.88;;
68196;SDS011;55019;49.382;11.358;2023-05-15T08:34:30;4.05;;;3.15;;
68196;SDS011;55019;49.382;11.358;2023-05-15T08:36:57;5.20;;;3.30;;
68196;SDS011;55019;49.382;11.358;2023-05-15T08:39:23;4.43;;;3.35;;
68196;SDS011;55019;49.382;11.358;2023-05-15T08:44:35;3.67;;;3.38;;
68196;SDS011;55019;49.382;11.358;2023-05-15T08:47:01;3.53;;;3.20;;
68196;SDS011;55019;49.382;11.358;2023-05-15T08:51:54;5.80;;;3.10;;
68196;SDS011;55019;49.382;11.358;2023-05-15T08:54:20;3.72;;;3.38;;
68196;SDS011;55019;49.382;11.358;2023-05-15T08:56:46;3.92;;;3.00;;
68196;SDS011;55019;49.382;11.358;2023-05-15T08:59:12;3.00;;;2.70;;
68196;SDS011;55019;49.382;11.358;2023-05-15T09:01:38;4.18;;;3.10;;
68196;SDS011;55019;49.382;11.358;2023-05-15T09:04:03;3.10;;;2.80;;
68196;SDS011;55019;49.382;11.358;2023-05-15T09:06:29;3.42;;;2.78;;
68196;SDS011;55019;49.382;11.358;2023-05-15T09:08:57;3.17;;;2.53;;
68196;SDS011;55019;49.382;11.358;2023-05-15T09:11:25;3.53;;;2.72;;
68196;SDS011;55019;49.382;11.358;2023-05-15T09:16:21;2.85;;;2.65;;
68196;SDS011;55019;49.382;11.358;2023-05-15T09:18:47;2.30;;;2.10;;
68196;SDS011;55019;49.382;11.358;2023-05-15T09:23:54;4.95;;;2.47;;
68196;SDS011;55019;49.382;11.358;2023-05-15T09:26:39;2.65;;;2.13;;
68196;SDS011;55019;49.382;11.358;2023-05-15T09:29:05;2.08;;;1.88;;
68196;SDS011;55019;49.382;11.358;2023-05-15T09:31:30;2.42;;;2.22;;
68196;SDS011;55019;49.382;11.358;2023-05-15T09:34:00;2.85;;;2.03;;
68196;SDS011;55019;49.382;11.358;2023-05-15T09:36:26;2.35;;;2.15;;
68196;SDS011;55019;49.382;11.358;2023-05-15T09:38:56;3.45;;;2.22;;
68196;SDS011;55019;49.382;11.358;2023-05-15T09:41:24;2.97;;;2.60;;
68196;SDS011;55019;49.382;11.358;2023-05-15T09:43:51;3.65;;;3.45;;
68196;SDS011;55019;49.382;11.358;2023-05-15T09:46:17;2.95;;;2.60;;
68196;SDS011;55019;49.382;11.358;2023-05-15T09:48:42;2.70;;;2.50;;
68196;SDS011;55019;49.382;11.358;2023-05-15T09:51:14;3.55;;;2.97;;
68196;SDS011;55019;49.382;11.358;2023-05-15T09:53:44;3.50;;;2.88;;
68196;SDS011;55019;49.382;11.358;2023-05-15T09:56:14;3.17;;;2.88;;
68196;SDS011;55019;49.382;11.358;2023-05-15T09:59:01;3.53;;;3.15;;
68196;SDS011;55019;49.382;11.358;2023-05-15T10:01:26;4.13;;;2.70;;
68196;SDS011;55019;49.382;11.358;2023-05-15T10:03:55;3.15;;;2.85;;
68196;SDS011;55019;49.382;11.358;2023-05-15T10:06:25;3.33;;;2.70;;
68196;SDS011;55019;49.382;11.358;2023-05-15T10:08:54;3.00;;;2.40;;
68196;SDS011;55019;49.382;11.358;2023-05-15T10:11:20;2.72;;;2.53;;
68196;SDS011;55019;49.382;11.358;2023-05-15T10:13:47;3.50;;;3.20;;
68196;SDS011;55019;49.382;11.358;2023-05-15T10:16:12;3.38;;;2.67;;
68196;SDS011;55019;49.382;11.358;2023-05-15T10:18:39;2.70;;;2.42;;
68196;SDS011;55019;49.382;11.358;2023-05-15T10:21:08;3.05;;;2.63;;
68196;SDS011;55019;49.382;11.358;2023-05-15T10:23:35;3.72;;;2.30;;
68196;SDS011;55019;49.382;11.358;2023-05-15T10:26:03;2.38;;;2.17;;
68196;SDS011;55019;49.382;11.358;2023-05-15T10:28:35;2.47;;;2.25;;
68196;SDS011;55019;49.382;11.358;2023-05-15T10:31:02;2.13;;;1.92;;
68196;SDS011;55019;49.382;11.358;2023-05-15T10:35:55;2.42;;;1.73;;
68196;SDS011;55019;49.382;11.358;2023-05-15T10:38:22;2.67;;;1.83;;
68196;SDS011;55019;49.382;11.358;2023-05-15T10:40:51;2.22;;;2.00;;
68196;SDS011;55019;49.382;11.358;2023-05-15T10:43:18;2.45;;;2.10;;
68196;SDS011;55019;49.382;11.358;2023-05-15T10:45:45;2.80;;;2.60;;
68196;SDS011;55019;49.382;11.358;2023-05-15T10:48:11;2.83;;;2.40;;
68196;SDS011;55019;49.382;11.358;2023-05-15T10:50:39;3.00;;;2.53;;
68196;SDS011;55019;49.382;11.358;2023-05-15T10:53:05;3.83;;;2.28;;
68196;SDS011;55019;49.382;11.358;2023-05-15T10:55:33;2.83;;;2.00;;
68196;SDS011;55019;49.382;11.358;2023-05-15T10:58:00;2.28;;;2.08;;
68196;SDS011;55019;49.382;11.358;2023-05-15T11:00:27;2.90;;;2.33;;
68196;SDS011;55019;49.382;11.358;2023-05-15T11:02:55;2.60;;;1.90;;
68196;SDS011;55019;49.382;11.358;2023-05-15T11:05:23;2.08;;;1.85;;
68196;SDS011;55019;49.382;11.358;2023-05-15T11:10:50;1.98;;;1.77;;
68196;SDS011;55019;49.382;11.358;2023-05-15T11:13:17;1.40;;;1.02;;
68196;SDS011;55019;49.382;11.358;2023-05-15T11:32:51;2.08;;;1.75;;
68196;SDS011;55019;49.382;11.358;2023-05-15T11:35:37;2.85;;;2.28;;
68196;SDS011;55019;49.382;11.358;2023-05-15T11:40:44;3.22;;;2.80;;
68196;SDS011;55019;49.382;11.358;2023-05-15T11:45:44;1.92;;;1.80;;
68196;SDS011;55019;49.382;11.358;2023-05-15T11:48:13;2.30;;;2.10;;
68196;SDS011;55019;49.382;11.358;2023-05-15T11:50:40;3.45;;;2.40;;
68196;SDS011;55019;49.382;11.358;2023-05-15T11:53:07;3.13;;;2.38;;
68196;SDS011;55019;49.382;11.358;2023-05-15T11:55:38;3.78;;;2.35;;
68196;SDS011;55019;49.382;11.358;2023-05-15T11:58:09;2.80;;;2.20;;
68196;SDS011;55019;49.382;11.358;2023-05-15T12:00:38;2.75;;;2.28;;
68196;SDS011;55019;49.382;11.358;2023-05-15T12:03:04;3.08;;;1.85;;
68196;SDS011;55019;49.382;11.358;2023-05-15T12:05:29;2.97;;;2.28;;
68196;SDS011;55019;49.382;11.358;2023-05-15T12:07:56;3.13;;;2.35;;
68196;SDS011;55019;49.382;11.358;2023-05-15T12:10:22;3.85;;;2.22;;
68196;SDS011;55019;49.382;11.358;2023-05-15T12:12:48;2.38;;;2.17;;
68196;SDS011;55019;49.382;11.358;2023-05-15T12:15:14;2.83;;;2.45;;
68196;SDS011;55019;49.382;11.358;2023-05-15T12:17:41;3.13;;;2.05;;
68196;SDS011;55019;49.382;11.358;2023-05-15T12:20:14;2.63;;;2.20;;
68196;SDS011;55019;49.382;11.358;2023-05-15T12:22:41;2.40;;;2.20;;
68196;SDS011;55019;49.382;11.358;2023-05-15T12:25:07;3.05;;;2.35;;
68196;SDS011;55019;49.382;11.358;2023-05-15T12:27:35;2.95;;;2.65;;
68196;SDS011;55019;49.382;11.358;2023-05-15T12:30:02;2.50;;;2.30;;
68196;SDS011;55019;49.382;11.358;2023-05-15T12:32:30;2.17;;;1.98;;
68196;SDS011;55019;49.382;11.358;2023-05-15T12:34:58;2.45;;;2.25;;
68196;SDS011;55019;49.382;11.358;2023-05-15T12:37:24;3.00;;;2.75;;
68196;SDS011;55019;49.382;11.358;2023-05-15T12:39:54;2.78;;;2.55;;
68196;SDS011;55019;49.382;11.358;2023-05-15T12:44:50;2.53;;;2.33;;
68196;SDS011;55019;49.382;11.358;2023-05-15T12:49:55;2.42;;;1.83;;
68196;SDS011;55019;49.382;11.358;2023-05-15T12:52:21;2.65;;;2.45;;
68196;SDS011;55019;49.382;11.358;2023-05-15T12:54:47;2.50;;;2.30;;
68196;SDS011;55019;49.382;11.358;2023-05-15T12:57:14;2.83;;;2.50;;
68196;SDS011;55019;49.382;11.358;2023-05-15T12:59:40;2.22;;;1.92;;
68196;SDS011;55019;49.382;11.358;2023-05-15T13:02:09;2.97;;;2.67;;
68196;SDS011;55019;49.382;11.358;2023-05-15T13:04:37;2.70;;;2.50;;
68196;SDS011;55019;49.382;11.358;2023-05-15T13:07:03;4.40;;;4.00;;
68196;SDS011;55019;49.382;11.358;2023-05-15T13:09:29;2.72;;;2.53;;
68196;SDS011;55019;49.382;11.358;2023-05-15T13:11:55;4.00;;;2.55;;
68196;SDS011;55019;49.382;11.358;2023-05-15T13:14:21;3.05;;;2.72;;
68196;SDS011;55019;49.382;11.358;2023-05-15T13:16:51;3.28;;;2.83;;
68196;SDS011;55019;49.382;11.358;2023-05-15T13:19:17;2.80;;;2.60;;
68196;SDS011;55019;49.382;11.358;2023-05-15T13:21:42;3.25;;;2.95;;
68196;SDS011;55019;49.382;11.358;2023-05-15T13:24:09;5.35;;;3.72;;
68196;SDS011;55019;49.382;11.358;2023-05-15T13:26:36;5.85;;;3.90;;
68196;SDS011;55019;49.382;11.358;2023-05-15T13:29:01;4.90;;;3.83;;
68196;SDS011;55019;49.382;11.358;2023-05-15T13:31:27;5.07;;;3.97;;
68196;SDS011;55019;49.382;11.358;2023-05-15T13:33:53;3.45;;;3.15;;
68196;SDS011;55019;49.382;11.358;2023-05-15T13:36:19;3.38;;;3.08;;
68196;SDS011;55019;49.382;11.358;2023-05-15T13:38:44;3.38;;;3.05;;
68196;SDS011;55019;49.382;11.358;2023-05-15T13:41:10;3.97;;;3.00;;
68196;SDS011;55019;49.382;11.358;2023-05-15T13:43:36;3.22;;;2.92;;
68196;SDS011;55019;49.382;11.358;2023-05-15T13:46:01;3.38;;;3.08;;
68196;SDS011;55019;49.382;11.358;2023-05-15T13:48:27;3.47;;;3.17;;
68196;SDS011;55019;49.382;11.358;2023-05-15T13:50:53;3.53;;;3.13;;
68196;SDS011;55019;49.382;11.358;2023-05-15T13:53:18;3.45;;;3.15;;
68196;SDS011;55019;49.382;11.358;2023-05-15T13:55:45;3.97;;;3.15;;
68196;SDS011;55019;49.382;11.358;2023-05-15T13:58:11;3.63;;;2.85;;
68196;SDS011;55019;49.382;11.358;2023-05-15T14:00:38;3.03;;;2.72;;
68196;SDS011;55019;49.382;11.358;2023-05-15T14:03:04;4.00;;;3.10;;
68196;SDS011;55019;49.382;11.358;2023-05-15T14:05:30;3.28;;;2.97;;
68196;SDS011;55019;49.382;11.358;2023-05-15T14:07:56;3.25;;;2.97;;
68196;SDS011;55019;49.382;11.358;2023-05-15T14:10:22;3.53;;;2.70;;
68196;SDS011;55019;49.382;11.358;2023-05-15T14:12:50;2.90;;;2.63;;
68196;SDS011;55019;49.382;11.358;2023-05-15T14:15:17;3.42;;;2.70;;
68196;SDS011;55019;49.382;11.358;2023-05-15T14:17:42;3.33;;;2.40;;
68196;SDS011;55019;49.382;11.358;2023-05-15T14:20:09;2.20;;;2.00;;
68196;SDS011;55019;49.382;11.358;2023-05-15T14:22:36;2.75;;;2.25;;
68196;SDS011;55019;49.382;11.358;2023-05-15T14:25:02;2.35;;;2.15;;
68196;SDS011;55019;49.382;11.358;2023-05-15T14:27:29;2.53;;;1.85;;
68196;SDS011;55019;49.382;11.358;2023-05-15T14:29:54;2.88;;;1.83;;
68196;SDS011;55019;49.382;11.358;2023-05-15T14:32:23;3.60;;;2.40;;
68196;SDS011;55019;49.382;11.358;2023-05-15T14:34:49;3.08;;;2.70;;
68196;SDS011;55019;49.382;11.358;2023-05-15T14:37:14;3.33;;;2.38;;
68196;SDS011;55019;49.382;11.358;2023-05-15T14:39:40;2.97;;;2.47;;
68196;SDS011;55019;49.382;11.358;2023-05-15T14:42:06;2.67;;;2.47;;
68196;SDS011;55019;49.382;11.358;2023-05-15T14:44:32;2.35;;;2.10;;
68196;SDS011;55019;49.382;11.358;2023-05-15T14:47:08;3.08;;;2.40;;
68196;SDS011;55019;49.382;11.358;2023-05-15T14:49:37;3.20;;;2.30;;
68196;SDS011;55019;49.382;11.358;2023-05-15T14:52:04;2.65;;;2.33;;
68196;SDS011;55019;49.382;11.358;2023-05-15T14:54:31;3.00;;;2.75;;
68196;SDS011;55019;49.382;11.358;2023-05-15T14:56:56;4.07;;;2.85;;
68196;SDS011;55019;49.382;11.358;2023-05-15T14:59:23;3.47;;;2.47;;
68196;SDS011;55019;49.382;11.358;2023-05-15T15:01:49;3.00;;;2.70;;
68196;SDS011;55019;49.382;11.358;2023-05-15T15:04:14;3.70;;;2.70;;
68196;SDS011;55019;49.382;11.358;2023-05-15T15:06:40;2.42;;;2.25;;
68196;SDS011;55019;49.382;11.358;2023-05-15T15:09:06;3.10;;;2.50;;
68196;SDS011;55019;49.382;11.358;2023-05-15T15:11:31;3.50;;;2.50;;
68196;SDS011;55019;49.382;11.358;2023-05-15T15:13:57;3.08;;;2.78;;
68196;SDS011;55019;49.382;11.358;2023-05-15T15:16:23;2.53;;;2.35;;
68196;SDS011;55019;49.382;11.358;2023-05-15T15:18:49;2.60;;;2.38;;
68196;SDS011;55019;49.382;11.358;2023-05-15T15:21:15;3.05;;;2.75;;
68196;SDS011;55019;49.382;11.358;2023-05-15T15:23:41;2.90;;;2.25;;
68196;SDS011;55019;49.382;11.358;2023-05-15T15:26:06;4.28;;;2.83;;
68196;SDS011;55019;49.382;11.358;2023-05-15T15:28:32;2.47;;;2.28;;
68196;SDS011;55019;49.382;11.358;2023-05-15T15:30:58;2.92;;;2.55;;
68196;SDS011;55019;49.382;11.358;2023-05-15T15:33:24;2.63;;;2.35;;
68196;SDS011;55019;49.382;11.358;2023-05-15T15:35:50;2.72;;;2.35;;
68196;SDS011;55019;49.382;11.358;2023-05-15T15:38:16;2.85;;;2.63;;
68196;SDS011;55019;49.382;11.358;2023-05-15T15:40:41;2.92;;;2.63;;
68196;SDS011;55019;49.382;11.358;2023-05-15T15:43:07;3.13;;;2.85;;
68196;SDS011;55019;49.382;11.358;2023-05-15T15:45:33;5.28;;;3.40;;
68196;SDS011;55019;49.382;11.358;2023-05-15T15:47:59;3.55;;;3.08;;